sensor_id;sensor_type;location;lat;lon;timestamp;P1;durP1;ratioP1;P2;durP2;ratioP2
61383;SDS011;63511;49.346;8.798;2023-02-13T00:02:24;41.15;;;17.95;;
61383;SDS011;63511;49.346;8.798;2023-02-13T00:04:52;32.60;;;16.23;;
61383;SDS011;63511;49.346;8.798;2023-02-13T00:07:18;42.85;;;16.67;;
61383;SDS011;63511;49.346;8.798;2023-02-13T00:09:45;50.15;;;19.10;;
61383;SDS011;63511;49.346;8.798;2023-02-13T00:12:11;39.80;;;17.65;;
61383;SDS011;63511;49.346;8.798;2023-02-13T00:14:38;47.13;;;16.85;;
61383;SDS011;63511;49.346;8.798;2023-02-13T00:17:05;37.75;;;17.65;;
61383;SDS011;63511;49.346;8.798;2023-02-13T00:19:32;42.67;;;17.33;;
61383;SDS011;63511;49.346;8.798;2023-02-13T00:22:00;45.35;;;18.35;;
61383;SDS011;63511;49.346;8.798;2023-02-13T00:24:26;41.78;;;18.10;;
61383;SDS011;63511;49.346;8.798;2023-02-13T00:26:53;41.92;;;18.60;;
61383;SDS011;63511;49.346;8.798;2023-02-13T00:29:19;44.47;;;18.23;;
61383;SDS011;63511;49.346;8.798;2023-02-13T00:31:46;44.88;;;17.13;;
61383;SDS011;63511;49.346;8.798;2023-02-13T00:34:12;45.78;;;19.20;;
61383;SDS011;63511;49.346;8.798;2023-02-13T00:36:39;38.58;;;16.38;;
61383;SDS011;63511;49.346;8.798;2023-02-13T00:39:07;37.15;;;17.35;;
61383;SDS011;63511;49.346;8.798;2023-02-13T00:41:37;34.78;;;15.60;;
61383;SDS011;63511;49.346;8.798;2023-02-13T00:44:03;39.10;;;14.68;;
61383;SDS011;63511;49.346;8.798;2023-02-13T00:46:30;36.88;;;16.40;;
61383;SDS011;63511;49.346;8.798;2023-02-13T00:48:57;33.20;;;14.55;;
61383;SDS011;63511;49.346;8.798;2023-02-13T00:51:23;33.53;;;16.80;;
61383;SDS011;63511;49.346;8.798;2023-02-13T00:53:50;38.28;;;15.23;;
61383;SDS011;63511;49.346;8.798;2023-02-13T00:56:17;31.95;;;15.20;;
61383;SDS011;63511;49.346;8.798;2023-02-13T00:58:44;34.55;;;16.20;;
61383;SDS011;63511;49.346;8.798;2023-02-13T01:01:11;36.42;;;14.20;;
61383;SDS011;63511;49.346;8.798;2023-02-13T01:03:37;33.20;;;16.20;;
61383;SDS011;63511;49.346;8.798;2023-02-13T01:06:04;30.63;;;15.18;;
61383;SDS011;63511;49.346;8.798;2023-02-13T01:08:32;29.40;;;13.70;;
61383;SDS011;63511;49.346;8.798;2023-02-13T01:10:59;33.17;;;14.48;;
61383;SDS011;63511;49.346;8.798;2023-02-13T01:13:27;31.50;;;13.50;;
61383;SDS011;63511;49.346;8.798;2023-02-13T01:15:54;34.60;;;14.18;;
61383;SDS011;63511;49.346;8.798;2023-02-13T01:18:20;37.25;;;15.02;;
61383;SDS011;63511;49.346;8.798;2023-02-13T01:20:54;32.97;;;16.33;;
61383;SDS011;63511;49.346;8.798;2023-02-13T01:23:21;33.38;;;15.57;;
61383;SDS011;63511;49.346;8.798;2023-02-13T01:25:48;31.38;;;15.43;;
61383;SDS011;63511;49.346;8.798;2023-02-13T01:28:15;31.35;;;14.40;;
61383;SDS011;63511;49.346;8.798;2023-02-13T01:30:43;28.50;;;13.55;;
61383;SDS011;63511;49.346;8.798;2023-02-13T01:33:10;30.95;;;14.30;;
61383;SDS011;63511;49.346;8.798;2023-02-13T01:35:37;34.08;;;15.45;;
61383;SDS011;63511;49.346;8.798;2023-02-13T01:38:04;35.05;;;15.00;;
61383;SDS011;63511;49.346;8.798;2023-02-13T01:40:30;42.00;;;17.00;;
61383;SDS011;63511;49.346;8.798;2023-02-13T01:42:57;36.17;;;16.83;;
61383;SDS011;63511;49.346;8.798;2023-02-13T01:45:24;39.33;;;16.17;;
61383;SDS011;63511;49.346;8.798;2023-02-13T01:47:54;34.03;;;16.55;;
61383;SDS011;63511;49.346;8.798;2023-02-13T01:50:24;27.27;;;13.77;;
61383;SDS011;63511;49.346;8.798;2023-02-13T01:52:56;30.35;;;15.23;;
61383;SDS011;63511;49.346;8.798;2023-02-13T01:55:25;33.22;;;14.93;;
61383;SDS011;63511;49.346;8.798;2023-02-13T01:57:53;27.00;;;14.38;;
61383;SDS011;63511;49.346;8.798;2023-02-13T02:00:24;37.67;;;14.60;;
61383;SDS011;63511;49.346;8.798;2023-02-13T02:02:52;28.23;;;14.38;;
61383;SDS011;63511;49.346;8.798;2023-02-13T02:05:23;32.15;;;13.60;;
61383;SDS011;63511;49.346;8.798;2023-02-13T02:07:52;34.40;;;14.98;;
61383;SDS011;63511;49.346;8.798;2023-02-13T02:10:22;33.55;;;15.45;;
61383;SDS011;63511;49.346;8.798;2023-02-13T02:12:51;38.20;;;15.90;;
61383;SDS011;63511;49.346;8.798;2023-02-13T02:15:23;38.17;;;16.92;;
61383;SDS011;63511;49.346;8.798;2023-02-13T02:17:50;34.95;;;15.93;;
61383;SDS011;63511;49.346;8.798;2023-02-13T02:20:21;30.38;;;14.57;;
61383;SDS011;63511;49.346;8.798;2023-02-13T02:29:28;37.72;;;15.68;;
61383;SDS011;63511;49.346;8.798;2023-02-13T02:32:21;29.45;;;13.68;;
61383;SDS011;63511;49.346;8.798;2023-02-13T02:35:01;30.80;;;14.45;;
61383;SDS011;63511;49.346;8.798;2023-02-13T02:37:43;30.67;;;14.03;;
61383;SDS011;63511;49.346;8.798;2023-02-13T02:40:23;34.45;;;15.27;;
61383;SDS011;63511;49.346;8.798;2023-02-13T02:42:57;30.90;;;14.20;;
61383;SDS011;63511;49.346;8.798;2023-02-13T02:45:35;31.85;;;13.07;;
61383;SDS011;63511;49.346;8.798;2023-02-13T02:48:11;35.97;;;15.52;;
61383;SDS011;63511;49.346;8.798;2023-02-13T02:51:03;35.05;;;14.48;;
61383;SDS011;63511;49.346;8.798;2023-02-13T02:53:37;32.90;;;15.18;;
61383;SDS011;63511;49.346;8.798;2023-02-13T02:56:11;32.05;;;14.82;;
61383;SDS011;63511;49.346;8.798;2023-02-13T02:58:44;39.65;;;14.63;;
61383;SDS011;63511;49.346;8.798;2023-02-13T03:01:35;34.63;;;13.75;;
61383;SDS011;63511;49.346;8.798;2023-02-13T03:04:24;34.10;;;14.93;;
61383;SDS011;63511;49.346;8.798;2023-02-13T03:07:12;25.02;;;12.10;;
61383;SDS011;63511;49.346;8.798;2023-02-13T03:09:42;34.38;;;14.82;;
61383;SDS011;63511;49.346;8.798;2023-02-13T03:12:30;28.95;;;13.10;;
61383;SDS011;63511;49.346;8.798;2023-02-13T03:15:21;26.83;;;13.98;;
61383;SDS011;63511;49.346;8.798;2023-02-13T03:17:50;25.83;;;10.57;;
61383;SDS011;63511;49.346;8.798;2023-02-13T03:20:39;25.70;;;11.20;;
61383;SDS011;63511;49.346;8.798;2023-02-13T03:23:32;28.02;;;11.48;;
61383;SDS011;63511;49.346;8.798;2023-02-13T03:26:15;30.52;;;13.35;;
61383;SDS011;63511;49.346;8.798;2023-02-13T03:29:11;30.02;;;13.13;;
61383;SDS011;63511;49.346;8.798;2023-02-13T03:32:10;28.85;;;13.35;;
61383;SDS011;63511;49.346;8.798;2023-02-13T03:34:47;32.10;;;14.40;;
61383;SDS011;63511;49.346;8.798;2023-02-13T03:37:41;33.03;;;14.27;;
61383;SDS011;63511;49.346;8.798;2023-02-13T03:40:22;32.00;;;14.35;;
61383;SDS011;63511;49.346;8.798;2023-02-13T03:42:54;50.50;;;15.93;;
61383;SDS011;63511;49.346;8.798;2023-02-13T03:45:29;39.70;;;16.00;;
61383;SDS011;63511;49.346;8.798;2023-02-13T03:48:17;34.00;;;15.15;;
61383;SDS011;63511;49.346;8.798;2023-02-13T03:51:04;37.92;;;16.23;;
61383;SDS011;63511;49.346;8.798;2023-02-13T03:53:35;35.63;;;14.85;;
61383;SDS011;63511;49.346;8.798;2023-02-13T03:56:05;34.97;;;13.80;;
61383;SDS011;63511;49.346;8.798;2023-02-13T03:58:52;35.72;;;14.52;;
61383;SDS011;63511;49.346;8.798;2023-02-13T04:01:39;33.25;;;15.00;;
61383;SDS011;63511;49.346;8.798;2023-02-13T04:04:09;35.15;;;16.08;;
61383;SDS011;63511;49.346;8.798;2023-02-13T04:06:41;33.33;;;15.30;;
61383;SDS011;63511;49.346;8.798;2023-02-13T04:09:13;30.63;;;14.77;;
61383;SDS011;63511;49.346;8.798;2023-02-13T04:11:41;53.75;;;15.07;;
61383;SDS011;63511;49.346;8.798;2023-02-13T04:14:15;47.05;;;14.18;;
61383;SDS011;63511;49.346;8.798;2023-02-13T04:16:47;33.80;;;14.65;;
61383;SDS011;63511;49.346;8.798;2023-02-13T04:19:17;34.15;;;12.35;;
61383;SDS011;63511;49.346;8.798;2023-02-13T04:21:47;32.40;;;14.65;;
61383;SDS011;63511;49.346;8.798;2023-02-13T04:24:21;30.25;;;13.27;;
61383;SDS011;63511;49.346;8.798;2023-02-13T04:26:47;37.80;;;15.27;;
61383;SDS011;63511;49.346;8.798;2023-02-13T04:29:14;29.00;;;13.73;;
61383;SDS011;63511;49.346;8.798;2023-02-13T04:31:41;30.20;;;14.73;;
61383;SDS011;63511;49.346;8.798;2023-02-13T04:34:07;25.15;;;11.63;;
61383;SDS011;63511;49.346;8.798;2023-02-13T04:36:34;29.45;;;12.98;;
61383;SDS011;63511;49.346;8.798;2023-02-13T04:39:00;25.80;;;12.65;;
61383;SDS011;63511;49.346;8.798;2023-02-13T04:41:28;25.73;;;12.85;;
61383;SDS011;63511;49.346;8.798;2023-02-13T04:43:55;22.25;;;10.38;;
61383;SDS011;63511;49.346;8.798;2023-02-13T04:46:21;18.63;;;9.98;;
61383;SDS011;63511;49.346;8.798;2023-02-13T04:48:48;23.00;;;10.93;;
61383;SDS011;63511;49.346;8.798;2023-02-13T04:51:15;24.42;;;12.35;;
61383;SDS011;63511;49.346;8.798;2023-02-13T04:53:41;20.98;;;10.45;;
61383;SDS011;63511;49.346;8.798;2023-02-13T04:56:08;21.52;;;10.65;;
61383;SDS011;63511;49.346;8.798;2023-02-13T04:58:35;20.85;;;10.52;;
61383;SDS011;63511;49.346;8.798;2023-02-13T05:01:02;19.65;;;10.27;;
61383;SDS011;63511;49.346;8.798;2023-02-13T05:03:36;20.83;;;11.27;;
61383;SDS011;63511;49.346;8.798;2023-02-13T05:06:03;23.48;;;10.27;;
61383;SDS011;63511;49.346;8.798;2023-02-13T05:08:30;18.17;;;10.27;;
61383;SDS011;63511;49.346;8.798;2023-02-13T05:10:56;18.52;;;10.02;;
61383;SDS011;63511;49.346;8.798;2023-02-13T05:13:23;21.27;;;11.60;;
61383;SDS011;63511;49.346;8.798;2023-02-13T05:15:51;18.40;;;10.23;;
61383;SDS011;63511;49.346;8.798;2023-02-13T05:18:17;20.02;;;10.25;;
61383;SDS011;63511;49.346;8.798;2023-02-13T05:20:44;21.80;;;10.93;;
61383;SDS011;63511;49.346;8.798;2023-02-13T05:23:30;26.13;;;11.70;;
61383;SDS011;63511;49.346;8.798;2023-02-13T05:25:56;21.63;;;11.18;;
61383;SDS011;63511;49.346;8.798;2023-02-13T05:28:23;27.88;;;11.30;;
61383;SDS011;63511;49.346;8.798;2023-02-13T05:31:08;31.83;;;11.77;;
61383;SDS011;63511;49.346;8.798;2023-02-13T05:33:35;28.63;;;11.93;;
61383;SDS011;63511;49.346;8.798;2023-02-13T05:36:01;29.40;;;12.32;;
61383;SDS011;63511;49.346;8.798;2023-02-13T05:38:28;33.63;;;12.45;;
61383;SDS011;63511;49.346;8.798;2023-02-13T05:40:57;28.90;;;12.77;;
61383;SDS011;63511;49.346;8.798;2023-02-13T05:43:24;28.98;;;13.52;;
61383;SDS011;63511;49.346;8.798;2023-02-13T05:45:50;28.58;;;12.90;;
61383;SDS011;63511;49.346;8.798;2023-02-13T05:48:18;26.13;;;11.93;;
61383;SDS011;63511;49.346;8.798;2023-02-13T05:50:45;27.20;;;12.75;;
61383;SDS011;63511;49.346;8.798;2023-02-13T05:53:11;33.33;;;13.73;;
61383;SDS011;63511;49.346;8.798;2023-02-13T05:55:38;32.35;;;14.23;;
61383;SDS011;63511;49.346;8.798;2023-02-13T05:58:04;37.38;;;15.23;;
61383;SDS011;63511;49.346;8.798;2023-02-13T06:00:33;31.52;;;14.18;;
61383;SDS011;63511;49.346;8.798;2023-02-13T06:03:00;37.55;;;14.43;;
61383;SDS011;63511;49.346;8.798;2023-02-13T06:05:27;46.50;;;15.43;;
61383;SDS011;63511;49.346;8.798;2023-02-13T06:07:54;46.88;;;14.43;;
61383;SDS011;63511;49.346;8.798;2023-02-13T06:10:20;51.45;;;13.90;;
61383;SDS011;63511;49.346;8.798;2023-02-13T06:12:47;57.67;;;13.82;;
61383;SDS011;63511;49.346;8.798;2023-02-13T06:15:13;37.63;;;14.30;;
61383;SDS011;63511;49.346;8.798;2023-02-13T06:17:40;34.00;;;13.75;;
61383;SDS011;63511;49.346;8.798;2023-02-13T06:20:07;34.45;;;13.48;;
61383;SDS011;63511;49.346;8.798;2023-02-13T06:22:35;33.63;;;12.93;;
61383;SDS011;63511;49.346;8.798;2023-02-13T06:25:02;38.28;;;15.32;;
61383;SDS011;63511;49.346;8.798;2023-02-13T06:27:29;27.63;;;13.35;;
61383;SDS011;63511;49.346;8.798;2023-02-13T06:29:56;27.67;;;12.82;;
61383;SDS011;63511;49.346;8.798;2023-02-13T06:32:22;23.23;;;10.30;;
61383;SDS011;63511;49.346;8.798;2023-02-13T06:34:48;18.15;;;9.88;;
61383;SDS011;63511;49.346;8.798;2023-02-13T06:37:15;24.42;;;10.65;;
61383;SDS011;63511;49.346;8.798;2023-02-13T06:39:43;23.52;;;11.48;;
61383;SDS011;63511;49.346;8.798;2023-02-13T06:42:09;27.80;;;11.90;;
61383;SDS011;63511;49.346;8.798;2023-02-13T06:44:36;24.10;;;11.30;;
61383;SDS011;63511;49.346;8.798;2023-02-13T06:47:02;22.50;;;11.32;;
61383;SDS011;63511;49.346;8.798;2023-02-13T06:49:29;23.23;;;10.80;;
61383;SDS011;63511;49.346;8.798;2023-02-13T06:51:55;25.05;;;12.23;;
61383;SDS011;63511;49.346;8.798;2023-02-13T06:54:22;16.05;;;8.63;;
61383;SDS011;63511;49.346;8.798;2023-02-13T06:56:50;23.20;;;9.75;;
61383;SDS011;63511;49.346;8.798;2023-02-13T06:59:16;18.85;;;9.77;;
61383;SDS011;63511;49.346;8.798;2023-02-13T07:01:43;20.15;;;9.35;;
61383;SDS011;63511;49.346;8.798;2023-02-13T07:04:09;21.05;;;9.48;;
61383;SDS011;63511;49.346;8.798;2023-02-13T07:06:36;18.67;;;9.55;;
61383;SDS011;63511;49.346;8.798;2023-02-13T07:09:02;25.17;;;10.48;;
61383;SDS011;63511;49.346;8.798;2023-02-13T07:11:30;18.20;;;9.02;;
61383;SDS011;63511;49.346;8.798;2023-02-13T07:13:58;20.60;;;10.05;;
61383;SDS011;63511;49.346;8.798;2023-02-13T07:16:24;20.65;;;9.50;;
61383;SDS011;63511;49.346;8.798;2023-02-13T07:18:51;19.63;;;9.90;;
61383;SDS011;63511;49.346;8.798;2023-02-13T07:21:17;24.13;;;10.45;;
61383;SDS011;63511;49.346;8.798;2023-02-13T07:23:44;20.15;;;10.05;;
61383;SDS011;63511;49.346;8.798;2023-02-13T07:26:10;17.42;;;9.43;;
61383;SDS011;63511;49.346;8.798;2023-02-13T07:28:37;21.20;;;11.13;;
61383;SDS011;63511;49.346;8.798;2023-02-13T07:31:05;25.20;;;10.93;;
61383;SDS011;63511;49.346;8.798;2023-02-13T07:33:31;23.15;;;11.60;;
61383;SDS011;63511;49.346;8.798;2023-02-13T07:35:58;33.28;;;13.00;;
61383;SDS011;63511;49.346;8.798;2023-02-13T07:38:27;26.67;;;12.57;;
61383;SDS011;63511;49.346;8.798;2023-02-13T07:40:56;30.45;;;11.52;;
61383;SDS011;63511;49.346;8.798;2023-02-13T07:43:23;26.38;;;11.98;;
61383;SDS011;63511;49.346;8.798;2023-02-13T07:45:50;27.35;;;12.55;;
61383;SDS011;63511;49.346;8.798;2023-02-13T07:48:20;23.73;;;11.95;;
61383;SDS011;63511;49.346;8.798;2023-02-13T07:50:47;30.60;;;11.52;;
61383;SDS011;63511;49.346;8.798;2023-02-13T07:53:13;30.85;;;13.95;;
61383;SDS011;63511;49.346;8.798;2023-02-13T07:55:40;28.73;;;13.65;;
61383;SDS011;63511;49.346;8.798;2023-02-13T07:58:06;27.80;;;12.63;;
61383;SDS011;63511;49.346;8.798;2023-02-13T08:00:33;26.33;;;12.85;;
61383;SDS011;63511;49.346;8.798;2023-02-13T08:03:00;25.15;;;12.38;;
61383;SDS011;63511;49.346;8.798;2023-02-13T08:05:28;30.15;;;13.60;;
61383;SDS011;63511;49.346;8.798;2023-02-13T08:07:57;30.08;;;13.10;;
61383;SDS011;63511;49.346;8.798;2023-02-13T08:10:23;25.13;;;12.90;;
61383;SDS011;63511;49.346;8.798;2023-02-13T08:13:07;25.05;;;12.18;;
61383;SDS011;63511;49.346;8.798;2023-02-13T08:15:35;28.75;;;12.68;;
61383;SDS011;63511;49.346;8.798;2023-02-13T08:18:02;23.55;;;12.38;;
61383;SDS011;63511;49.346;8.798;2023-02-13T08:20:30;27.08;;;12.27;;
61383;SDS011;63511;49.346;8.798;2023-02-13T08:23:01;23.83;;;13.38;;
61383;SDS011;63511;49.346;8.798;2023-02-13T08:25:28;28.73;;;13.65;;
61383;SDS011;63511;49.346;8.798;2023-02-13T08:27:55;25.63;;;13.85;;
61383;SDS011;63511;49.346;8.798;2023-02-13T08:30:21;25.75;;;12.95;;
61383;SDS011;63511;49.346;8.798;2023-02-13T08:32:48;28.25;;;15.30;;
61383;SDS011;63511;49.346;8.798;2023-02-13T08:35:14;32.15;;;14.00;;
61383;SDS011;63511;49.346;8.798;2023-02-13T08:37:42;29.02;;;15.55;;
61383;SDS011;63511;49.346;8.798;2023-02-13T08:40:09;37.20;;;16.83;;
61383;SDS011;63511;49.346;8.798;2023-02-13T08:42:36;44.67;;;19.65;;
61383;SDS011;63511;49.346;8.798;2023-02-13T08:45:03;38.28;;;17.58;;
61383;SDS011;63511;49.346;8.798;2023-02-13T08:47:30;40.30;;;17.67;;
61383;SDS011;63511;49.346;8.798;2023-02-13T08:49:56;32.80;;;15.85;;
61383;SDS011;63511;49.346;8.798;2023-02-13T08:52:23;35.83;;;16.50;;
61383;SDS011;63511;49.346;8.798;2023-02-13T08:54:51;33.42;;;15.75;;
61383;SDS011;63511;49.346;8.798;2023-02-13T08:57:17;39.15;;;18.05;;
61383;SDS011;63511;49.346;8.798;2023-02-13T08:59:44;39.17;;;16.90;;
61383;SDS011;63511;49.346;8.798;2023-02-13T09:02:10;35.55;;;18.63;;
61383;SDS011;63511;49.346;8.798;2023-02-13T09:04:38;34.88;;;16.80;;
61383;SDS011;63511;49.346;8.798;2023-02-13T09:07:05;35.53;;;17.00;;
61383;SDS011;63511;49.346;8.798;2023-02-13T09:09:31;36.40;;;17.27;;
61383;SDS011;63511;49.346;8.798;2023-02-13T09:11:59;29.88;;;16.05;;
61383;SDS011;63511;49.346;8.798;2023-02-13T09:14:26;38.17;;;18.23;;
61383;SDS011;63511;49.346;8.798;2023-02-13T09:16:52;37.28;;;17.02;;
61383;SDS011;63511;49.346;8.798;2023-02-13T09:19:19;39.38;;;17.80;;
61383;SDS011;63511;49.346;8.798;2023-02-13T09:21:46;36.33;;;17.95;;
61383;SDS011;63511;49.346;8.798;2023-02-13T09:24:12;36.70;;;18.45;;
61383;SDS011;63511;49.346;8.798;2023-02-13T09:26:39;39.20;;;18.33;;
61383;SDS011;63511;49.346;8.798;2023-02-13T09:29:07;40.72;;;18.38;;
61383;SDS011;63511;49.346;8.798;2023-02-13T09:31:33;38.22;;;18.80;;
61383;SDS011;63511;49.346;8.798;2023-02-13T09:34:00;27.85;;;15.73;;
61383;SDS011;63511;49.346;8.798;2023-02-13T09:36:26;29.60;;;15.20;;
61383;SDS011;63511;49.346;8.798;2023-02-13T09:38:53;28.98;;;14.65;;
61383;SDS011;63511;49.346;8.798;2023-02-13T09:41:22;30.80;;;14.35;;
61383;SDS011;63511;49.346;8.798;2023-02-13T09:43:51;31.98;;;15.45;;
61383;SDS011;63511;49.346;8.798;2023-02-13T09:46:21;32.95;;;16.27;;
61383;SDS011;63511;49.346;8.798;2023-02-13T09:48:52;30.02;;;16.05;;
61383;SDS011;63511;49.346;8.798;2023-02-13T09:51:21;32.95;;;16.67;;
61383;SDS011;63511;49.346;8.798;2023-02-13T09:53:51;30.27;;;15.65;;
61383;SDS011;63511;49.346;8.798;2023-02-13T09:56:26;36.42;;;17.70;;
61383;SDS011;63511;49.346;8.798;2023-02-13T09:59:04;36.97;;;16.60;;
61383;SDS011;63511;49.346;8.798;2023-02-13T10:01:43;33.45;;;16.08;;
61383;SDS011;63511;49.346;8.798;2023-02-13T10:04:16;27.58;;;15.82;;
61383;SDS011;63511;49.346;8.798;2023-02-13T10:07:07;31.30;;;16.33;;
61383;SDS011;63511;49.346;8.798;2023-02-13T10:09:45;35.80;;;16.77;;
61383;SDS011;63511;49.346;8.798;2023-02-13T10:12:29;29.42;;;16.40;;
61383;SDS011;63511;49.346;8.798;2023-02-13T10:15:14;30.00;;;16.38;;
61383;SDS011;63511;49.346;8.798;2023-02-13T10:17:49;24.23;;;13.90;;
61383;SDS011;63511;49.346;8.798;2023-02-13T10:20:24;29.75;;;15.75;;
61383;SDS011;63511;49.346;8.798;2023-02-13T10:22:55;26.70;;;14.50;;
61383;SDS011;63511;49.346;8.798;2023-02-13T10:25:29;22.48;;;13.60;;
61383;SDS011;63511;49.346;8.798;2023-02-13T10:28:03;26.20;;;14.65;;
61383;SDS011;63511;49.346;8.798;2023-02-13T10:30:35;22.60;;;13.13;;
61383;SDS011;63511;49.346;8.798;2023-02-13T10:33:13;22.73;;;13.38;;
61383;SDS011;63511;49.346;8.798;2023-02-13T10:35:47;21.27;;;12.35;;
61383;SDS011;63511;49.346;8.798;2023-02-13T10:38:18;21.90;;;12.43;;
61383;SDS011;63511;49.346;8.798;2023-02-13T10:40:58;23.08;;;13.70;;
61383;SDS011;63511;49.346;8.798;2023-02-13T10:43:33;19.95;;;11.65;;
61383;SDS011;63511;49.346;8.798;2023-02-13T10:46:13;21.50;;;12.85;;
61383;SDS011;63511;49.346;8.798;2023-02-13T10:48:54;22.00;;;12.68;;
61383;SDS011;63511;49.346;8.798;2023-02-13T10:51:29;20.38;;;11.52;;
61383;SDS011;63511;49.346;8.798;2023-02-13T10:54:14;20.05;;;11.45;;
61383;SDS011;63511;49.346;8.798;2023-02-13T10:57:01;18.92;;;11.30;;
61383;SDS011;63511;49.346;8.798;2023-02-13T10:59:42;17.75;;;11.15;;
61383;SDS011;63511;49.346;8.798;2023-02-13T11:02:21;18.48;;;10.30;;
61383;SDS011;63511;49.346;8.798;2023-02-13T11:04:52;19.23;;;11.77;;
61383;SDS011;63511;49.346;8.798;2023-02-13T11:07:24;16.02;;;10.07;;
61383;SDS011;63511;49.346;8.798;2023-02-13T11:09:54;17.95;;;10.10;;
61383;SDS011;63511;49.346;8.798;2023-02-13T11:12:26;17.77;;;10.35;;
61383;SDS011;63511;49.346;8.798;2023-02-13T11:14:54;17.30;;;10.40;;
61383;SDS011;63511;49.346;8.798;2023-02-13T11:17:23;17.48;;;10.82;;
61383;SDS011;63511;49.346;8.798;2023-02-13T11:19:53;20.02;;;11.75;;
61383;SDS011;63511;49.346;8.798;2023-02-13T11:22:31;16.98;;;10.93;;
61383;SDS011;63511;49.346;8.798;2023-02-13T11:25:01;15.85;;;9.68;;
61383;SDS011;63511;49.346;8.798;2023-02-13T11:27:32;16.30;;;10.80;;
61383;SDS011;63511;49.346;8.798;2023-02-13T11:30:02;16.42;;;10.15;;
61383;SDS011;63511;49.346;8.798;2023-02-13T11:32:30;22.70;;;10.20;;
61383;SDS011;63511;49.346;8.798;2023-02-13T11:34:59;14.88;;;10.00;;
61383;SDS011;63511;49.346;8.798;2023-02-13T11:37:59;16.88;;;10.40;;
61383;SDS011;63511;49.346;8.798;2023-02-13T11:40:37;19.25;;;10.40;;
61383;SDS011;63511;49.346;8.798;2023-02-13T11:43:05;20.50;;;11.98;;
61383;SDS011;63511;49.346;8.798;2023-02-13T11:45:39;16.58;;;10.35;;
61383;SDS011;63511;49.346;8.798;2023-02-13T11:48:07;16.20;;;9.48;;
61383;SDS011;63511;49.346;8.798;2023-02-13T11:50:41;16.27;;;9.45;;
61383;SDS011;63511;49.346;8.798;2023-02-13T11:53:15;14.85;;;9.90;;
61383;SDS011;63511;49.346;8.798;2023-02-13T11:55:58;18.15;;;10.82;;
61383;SDS011;63511;49.346;8.798;2023-02-13T11:58:28;15.50;;;9.88;;
61383;SDS011;63511;49.346;8.798;2023-02-13T12:01:06;16.30;;;8.63;;
61383;SDS011;63511;49.346;8.798;2023-02-13T12:03:34;11.83;;;8.43;;
61383;SDS011;63511;49.346;8.798;2023-02-13T12:06:05;16.10;;;10.02;;
61383;SDS011;63511;49.346;8.798;2023-02-13T12:08:38;18.05;;;9.35;;
61383;SDS011;63511;49.346;8.798;2023-02-13T12:11:11;16.83;;;9.32;;
61383;SDS011;63511;49.346;8.798;2023-02-13T12:13:45;16.17;;;9.05;;
61383;SDS011;63511;49.346;8.798;2023-02-13T12:16:16;17.60;;;8.48;;
61383;SDS011;63511;49.346;8.798;2023-02-13T12:18:52;13.60;;;8.20;;
61383;SDS011;63511;49.346;8.798;2023-02-13T12:21:27;13.27;;;8.73;;
61383;SDS011;63511;49.346;8.798;2023-02-13T12:24:03;13.18;;;8.07;;
61383;SDS011;63511;49.346;8.798;2023-02-13T12:26:37;14.57;;;9.20;;
61383;SDS011;63511;49.346;8.798;2023-02-13T12:29:19;12.48;;;8.00;;
61383;SDS011;63511;49.346;8.798;2023-02-13T12:32:04;14.73;;;7.45;;
61383;SDS011;63511;49.346;8.798;2023-02-13T12:37:57;15.55;;;8.98;;
61383;SDS011;63511;49.346;8.798;2023-02-13T12:46:25;13.35;;;8.05;;
61383;SDS011;63511;49.346;8.798;2023-02-13T12:48:56;12.48;;;8.48;;
61383;SDS011;63511;49.346;8.798;2023-02-13T12:51:35;10.90;;;7.70;;
61383;SDS011;63511;49.346;8.798;2023-02-13T12:54:17;11.93;;;7.15;;
61383;SDS011;63511;49.346;8.798;2023-02-13T12:57:04;11.90;;;8.02;;
61383;SDS011;63511;49.346;8.798;2023-02-13T12:59:49;12.88;;;7.50;;
61383;SDS011;63511;49.346;8.798;2023-02-13T13:05:24;12.73;;;8.52;;
61383;SDS011;63511;49.346;8.798;2023-02-13T13:08:07;12.98;;;7.55;;
61383;SDS011;63511;49.346;8.798;2023-02-13T13:10:48;9.48;;;6.68;;
61383;SDS011;63511;49.346;8.798;2023-02-13T13:13:27;11.95;;;8.32;;
61383;SDS011;63511;49.346;8.798;2023-02-13T13:16:02;9.68;;;6.75;;
61383;SDS011;63511;49.346;8.798;2023-02-13T13:18:38;11.00;;;7.18;;
61383;SDS011;63511;49.346;8.798;2023-02-13T13:23:51;10.65;;;6.65;;
61383;SDS011;63511;49.346;8.798;2023-02-13T13:26:26;9.93;;;6.13;;
61383;SDS011;63511;49.346;8.798;2023-02-13T13:29:00;12.05;;;7.05;;
61383;SDS011;63511;49.346;8.798;2023-02-13T13:31:30;17.25;;;7.70;;
61383;SDS011;63511;49.346;8.798;2023-02-13T13:34:01;11.48;;;7.63;;
61383;SDS011;63511;49.346;8.798;2023-02-13T13:39:03;9.77;;;5.30;;
61383;SDS011;63511;49.346;8.798;2023-02-13T13:41:39;8.93;;;6.10;;
61383;SDS011;63511;49.346;8.798;2023-02-13T13:44:17;8.95;;;6.32;;
61383;SDS011;63511;49.346;8.798;2023-02-13T13:46:53;8.80;;;5.60;;
61383;SDS011;63511;49.346;8.798;2023-02-13T13:49:26;10.55;;;5.53;;
61383;SDS011;63511;49.346;8.798;2023-02-13T13:52:09;8.25;;;5.55;;
61383;SDS011;63511;49.346;8.798;2023-02-13T13:54:38;7.88;;;5.15;;
61383;SDS011;63511;49.346;8.798;2023-02-13T13:57:06;6.88;;;4.63;;
61383;SDS011;63511;49.346;8.798;2023-02-13T14:02:48;6.68;;;4.75;;
61383;SDS011;63511;49.346;8.798;2023-02-13T14:05:17;7.72;;;5.47;;
61383;SDS011;63511;49.346;8.798;2023-02-13T14:07:50;8.10;;;5.00;;
61383;SDS011;63511;49.346;8.798;2023-02-13T14:13:34;8.23;;;5.43;;
61383;SDS011;63511;49.346;8.798;2023-02-13T14:16:03;10.13;;;5.10;;
61383;SDS011;63511;49.346;8.798;2023-02-13T14:18:31;8.30;;;5.10;;
61383;SDS011;63511;49.346;8.798;2023-02-13T14:20:59;8.20;;;5.50;;
61383;SDS011;63511;49.346;8.798;2023-02-13T14:23:32;7.05;;;4.55;;
61383;SDS011;63511;49.346;8.798;2023-02-13T14:26:09;9.73;;;4.82;;
61383;SDS011;63511;49.346;8.798;2023-02-13T14:28:57;6.78;;;4.97;;
61383;SDS011;63511;49.346;8.798;2023-02-13T14:31:30;8.15;;;5.18;;
61383;SDS011;63511;49.346;8.798;2023-02-13T14:33:58;9.23;;;5.68;;
61383;SDS011;63511;49.346;8.798;2023-02-13T14:36:27;6.90;;;4.97;;
61383;SDS011;63511;49.346;8.798;2023-02-13T14:38:59;7.68;;;5.43;;
61383;SDS011;63511;49.346;8.798;2023-02-13T14:41:40;6.20;;;4.93;;
61383;SDS011;63511;49.346;8.798;2023-02-13T14:44:23;6.10;;;4.00;;
61383;SDS011;63511;49.346;8.798;2023-02-13T14:46:54;7.72;;;5.25;;
61383;SDS011;63511;49.346;8.798;2023-02-13T14:49:22;6.75;;;4.32;;
61383;SDS011;63511;49.346;8.798;2023-02-13T14:51:52;8.25;;;5.22;;
61383;SDS011;63511;49.346;8.798;2023-02-13T14:54:24;9.70;;;5.50;;
61383;SDS011;63511;49.346;8.798;2023-02-13T14:56:57;13.48;;;6.13;;
61383;SDS011;63511;49.346;8.798;2023-02-13T14:59:32;7.15;;;4.40;;
61383;SDS011;63511;49.346;8.798;2023-02-13T15:02:06;6.70;;;4.93;;
61383;SDS011;63511;49.346;8.798;2023-02-13T15:04:40;7.68;;;5.18;;
61383;SDS011;63511;49.346;8.798;2023-02-13T15:07:12;10.00;;;4.82;;
61383;SDS011;63511;49.346;8.798;2023-02-13T15:09:44;9.93;;;5.72;;
61383;SDS011;63511;49.346;8.798;2023-02-13T15:12:24;7.10;;;4.85;;
61383;SDS011;63511;49.346;8.798;2023-02-13T15:14:53;7.15;;;4.80;;
61383;SDS011;63511;49.346;8.798;2023-02-13T15:17:20;7.13;;;4.75;;
61383;SDS011;63511;49.346;8.798;2023-02-13T15:19:50;8.63;;;4.93;;
61383;SDS011;63511;49.346;8.798;2023-02-13T15:22:19;7.90;;;5.40;;